sensor_id;sensor_type;location;lat;lon;timestamp;P1;durP1;ratioP1;P2;durP2;ratioP2
31224;SDS011;17847;31.524;74.366;2023-06-22T00:01:37;27.02;;;8.27;;
31224;SDS011;17847;31.524;74.366;2023-06-22T00:04:06;23.55;;;6.78;;
31224;SDS011;17847;31.524;74.366;2023-06-22T00:06:36;29.88;;;7.45;;
31224;SDS011;17847;31.524;74.366;2023-06-22T00:09:05;21.52;;;7.45;;
31224;SDS011;17847;31.524;74.366;2023-06-22T00:11:39;21.38;;;7.47;;
31224;SDS011;17847;31.524;74.366;2023-06-22T00:14:08;27.50;;;7.13;;
31224;SDS011;17847;31.524;74.366;2023-06-22T00:16:38;20.42;;;7.65;;
31224;SDS011;17847;31.524;74.366;2023-06-22T00:19:07;16.98;;;6.70;;
31224;SDS011;17847;31.524;74.366;2023-06-22T00:21:40;20.88;;;7.30;;
31224;SDS011;17847;31.524;74.366;2023-06-22T00:24:11;25.50;;;7.18;;
31224;SDS011;17847;31.524;74.366;2023-06-22T00:26:40;19.65;;;7.32;;
31224;SDS011;17847;31.524;74.366;2023-06-22T00:29:10;21.67;;;7.93;;
31224;SDS011;17847;31.524;74.366;2023-06-22T00:31:40;21.65;;;7.82;;
31224;SDS011;17847;31.524;74.366;2023-06-22T00:34:09;25.23;;;6.78;;
31224;SDS011;17847;31.524;74.366;2023-06-22T00:36:38;23.20;;;7.00;;
31224;SDS011;17847;31.524;74.366;2023-06-22T00:39:09;18.48;;;7.03;;
31224;SDS011;17847;31.524;74.366;2023-06-22T00:41:39;23.23;;;7.05;;
31224;SDS011;17847;31.524;74.366;2023-06-22T00:44:08;25.00;;;8.75;;
31224;SDS011;17847;31.524;74.366;2023-06-22T00:46:38;22.45;;;7.03;;
31224;SDS011;17847;31.524;74.366;2023-06-22T00:49:07;20.75;;;6.68;;
31224;SDS011;17847;31.524;74.366;2023-06-22T00:51:37;24.35;;;9.35;;
31224;SDS011;17847;31.524;74.366;2023-06-22T00:54:09;21.42;;;7.82;;
31224;SDS011;17847;31.524;74.366;2023-06-22T00:56:40;16.58;;;7.28;;
31224;SDS011;17847;31.524;74.366;2023-06-22T00:59:11;24.58;;;7.75;;
31224;SDS011;17847;31.524;74.366;2023-06-22T01:01:40;26.38;;;8.90;;
31224;SDS011;17847;31.524;74.366;2023-06-22T01:04:10;27.98;;;8.85;;
31224;SDS011;17847;31.524;74.366;2023-06-22T01:10:07;26.00;;;8.70;;
31224;SDS011;17847;31.524;74.366;2023-06-22T01:12:59;26.27;;;8.88;;
31224;SDS011;17847;31.524;74.366;2023-06-22T01:15:46;26.10;;;10.57;;
31224;SDS011;17847;31.524;74.366;2023-06-22T01:18:25;28.23;;;11.05;;
31224;SDS011;17847;31.524;74.366;2023-06-22T01:21:00;29.10;;;12.15;;
31224;SDS011;17847;31.524;74.366;2023-06-22T01:26:43;41.17;;;14.98;;
31224;SDS011;17847;31.524;74.366;2023-06-22T01:29:16;43.63;;;14.85;;
31224;SDS011;17847;31.524;74.366;2023-06-22T01:31:49;35.90;;;15.27;;
31224;SDS011;17847;31.524;74.366;2023-06-22T01:34:20;41.08;;;15.88;;
31224;SDS011;17847;31.524;74.366;2023-06-22T01:36:52;37.03;;;15.80;;
31224;SDS011;17847;31.524;74.366;2023-06-22T01:39:22;37.80;;;15.60;;
31224;SDS011;17847;31.524;74.366;2023-06-22T01:41:53;39.25;;;15.68;;
31224;SDS011;17847;31.524;74.366;2023-06-22T01:44:22;34.80;;;15.70;;
31224;SDS011;17847;31.524;74.366;2023-06-22T01:46:54;40.42;;;15.38;;
31224;SDS011;17847;31.524;74.366;2023-06-22T01:49:25;38.72;;;15.15;;
31224;SDS011;17847;31.524;74.366;2023-06-22T01:51:54;39.70;;;15.40;;
31224;SDS011;17847;31.524;74.366;2023-06-22T01:54:24;32.72;;;15.13;;
31224;SDS011;17847;31.524;74.366;2023-06-22T01:56:53;36.03;;;14.55;;
31224;SDS011;17847;31.524;74.366;2023-06-22T01:59:29;32.97;;;13.50;;
31224;SDS011;17847;31.524;74.366;2023-06-22T02:02:04;40.88;;;14.05;;
31224;SDS011;17847;31.524;74.366;2023-06-22T02:04:41;32.63;;;12.90;;
31224;SDS011;17847;31.524;74.366;2023-06-22T02:07:17;35.35;;;13.07;;
31224;SDS011;17847;31.524;74.366;2023-06-22T02:09:50;32.78;;;11.68;;
31224;SDS011;17847;31.524;74.366;2023-06-22T02:12:22;34.50;;;10.73;;
31224;SDS011;17847;31.524;74.366;2023-06-22T02:14:56;32.70;;;10.18;;
31224;SDS011;17847;31.524;74.366;2023-06-22T02:17:26;29.02;;;9.23;;
31224;SDS011;17847;31.524;74.366;2023-06-22T02:19:56;25.00;;;8.77;;
31224;SDS011;17847;31.524;74.366;2023-06-22T02:22:25;27.42;;;9.35;;
31224;SDS011;17847;31.524;74.366;2023-06-22T02:24:54;40.10;;;10.50;;
31224;SDS011;17847;31.524;74.366;2023-06-22T02:27:25;34.55;;;8.35;;
31224;SDS011;17847;31.524;74.366;2023-06-22T02:29:55;18.98;;;7.15;;
31224;SDS011;17847;31.524;74.366;2023-06-22T02:32:24;26.73;;;8.27;;
31224;SDS011;17847;31.524;74.366;2023-06-22T02:34:54;31.20;;;8.75;;
31224;SDS011;17847;31.524;74.366;2023-06-22T02:37:23;29.48;;;7.10;;
31224;SDS011;17847;31.524;74.366;2023-06-22T02:39:54;23.85;;;6.43;;
31224;SDS011;17847;31.524;74.366;2023-06-22T02:42:23;24.50;;;5.93;;
31224;SDS011;17847;31.524;74.366;2023-06-22T02:44:52;20.55;;;6.00;;
31224;SDS011;17847;31.524;74.366;2023-06-22T02:47:22;17.65;;;5.05;;
31224;SDS011;17847;31.524;74.366;2023-06-22T02:49:51;27.05;;;6.13;;
31224;SDS011;17847;31.524;74.366;2023-06-22T02:52:21;29.52;;;5.63;;
31224;SDS011;17847;31.524;74.366;2023-06-22T02:54:51;19.08;;;5.38;;
31224;SDS011;17847;31.524;74.366;2023-06-22T02:57:20;21.20;;;5.25;;
31224;SDS011;17847;31.524;74.366;2023-06-22T02:59:50;28.63;;;5.70;;
31224;SDS011;17847;31.524;74.366;2023-06-22T03:02:19;20.83;;;5.78;;
31224;SDS011;17847;31.524;74.366;2023-06-22T03:04:50;42.25;;;8.10;;
31224;SDS011;17847;31.524;74.366;2023-06-22T03:07:22;25.33;;;5.63;;
31224;SDS011;17847;31.524;74.366;2023-06-22T03:09:54;21.85;;;5.30;;
31224;SDS011;17847;31.524;74.366;2023-06-22T03:12:24;19.05;;;5.75;;
31224;SDS011;17847;31.524;74.366;2023-06-22T03:14:54;24.23;;;6.70;;
31224;SDS011;17847;31.524;74.366;2023-06-22T03:17:24;19.80;;;5.05;;
31224;SDS011;17847;31.524;74.366;2023-06-22T03:19:53;23.67;;;7.53;;
31224;SDS011;17847;31.524;74.366;2023-06-22T03:22:23;31.63;;;6.80;;
31224;SDS011;17847;31.524;74.366;2023-06-22T03:24:52;23.73;;;5.60;;
31224;SDS011;17847;31.524;74.366;2023-06-22T03:27:22;33.20;;;7.43;;
31224;SDS011;17847;31.524;74.366;2023-06-22T03:29:51;23.48;;;6.43;;
31224;SDS011;17847;31.524;74.366;2023-06-22T03:32:22;20.30;;;5.80;;
31224;SDS011;17847;31.524;74.366;2023-06-22T03:34:53;28.35;;;5.90;;
31224;SDS011;17847;31.524;74.366;2023-06-22T03:37:28;29.05;;;6.50;;
31224;SDS011;17847;31.524;74.366;2023-06-22T03:39:59;25.58;;;6.47;;
31224;SDS011;17847;31.524;74.366;2023-06-22T03:42:29;26.55;;;5.85;;
31224;SDS011;17847;31.524;74.366;2023-06-22T03:44:59;21.30;;;6.20;;
31224;SDS011;17847;31.524;74.366;2023-06-22T03:47:30;21.27;;;6.30;;
31224;SDS011;17847;31.524;74.366;2023-06-22T03:49:59;27.02;;;5.95;;
31224;SDS011;17847;31.524;74.366;2023-06-22T03:52:29;21.98;;;5.68;;
31224;SDS011;17847;31.524;74.366;2023-06-22T03:54:58;21.73;;;7.40;;
31224;SDS011;17847;31.524;74.366;2023-06-22T03:57:28;25.08;;;5.95;;
31224;SDS011;17847;31.524;74.366;2023-06-22T03:59:58;23.60;;;6.38;;
31224;SDS011;17847;31.524;74.366;2023-06-22T04:02:38;21.85;;;6.20;;
31224;SDS011;17847;31.524;74.366;2023-06-22T04:05:08;27.98;;;7.25;;
31224;SDS011;17847;31.524;74.366;2023-06-22T04:07:39;26.58;;;7.20;;
31224;SDS011;17847;31.524;74.366;2023-06-22T04:10:10;30.98;;;8.00;;
31224;SDS011;17847;31.524;74.366;2023-06-22T04:12:43;35.85;;;7.10;;
31224;SDS011;17847;31.524;74.366;2023-06-22T04:15:13;34.22;;;6.70;;
31224;SDS011;17847;31.524;74.366;2023-06-22T04:17:42;29.13;;;6.72;;
31224;SDS011;17847;31.524;74.366;2023-06-22T04:20:11;29.67;;;6.57;;
31224;SDS011;17847;31.524;74.366;2023-06-22T04:22:41;23.63;;;7.45;;
31224;SDS011;17847;31.524;74.366;2023-06-22T04:25:10;23.95;;;6.10;;
31224;SDS011;17847;31.524;74.366;2023-06-22T04:27:40;20.00;;;5.88;;
31224;SDS011;17847;31.524;74.366;2023-06-22T04:30:09;30.33;;;7.40;;
31224;SDS011;17847;31.524;74.366;2023-06-22T04:32:39;29.80;;;6.28;;
31224;SDS011;17847;31.524;74.366;2023-06-22T04:35:10;20.90;;;6.53;;
31224;SDS011;17847;31.524;74.366;2023-06-22T04:37:40;24.02;;;6.05;;
31224;SDS011;17847;31.524;74.366;2023-06-22T04:40:09;24.98;;;5.95;;
31224;SDS011;17847;31.524;74.366;2023-06-22T04:42:39;28.17;;;7.22;;
31224;SDS011;17847;31.524;74.366;2023-06-22T04:45:08;24.25;;;6.03;;
31224;SDS011;17847;31.524;74.366;2023-06-22T04:47:39;24.77;;;6.30;;
31224;SDS011;17847;31.524;74.366;2023-06-22T04:50:09;24.63;;;6.75;;
31224;SDS011;17847;31.524;74.366;2023-06-22T04:52:38;23.58;;;6.28;;
31224;SDS011;17847;31.524;74.366;2023-06-22T04:55:07;20.40;;;5.35;;
31224;SDS011;17847;31.524;74.366;2023-06-22T04:57:40;23.75;;;6.35;;
31224;SDS011;17847;31.524;74.366;2023-06-22T05:02:45;23.75;;;8.20;;
31224;SDS011;17847;31.524;74.366;2023-06-22T05:05:16;21.42;;;5.82;;
31224;SDS011;17847;31.524;74.366;2023-06-22T05:07:46;29.35;;;7.57;;
31224;SDS011;17847;31.524;74.366;2023-06-22T05:10:21;36.53;;;8.30;;
31224;SDS011;17847;31.524;74.366;2023-06-22T05:12:50;28.05;;;8.95;;
31224;SDS011;17847;31.524;74.366;2023-06-22T05:15:20;35.10;;;12.48;;
31224;SDS011;17847;31.524;74.366;2023-06-22T05:17:51;37.85;;;11.18;;
31224;SDS011;17847;31.524;74.366;2023-06-22T05:20:22;39.92;;;13.27;;
31224;SDS011;17847;31.524;74.366;2023-06-22T05:22:51;43.85;;;11.93;;
31224;SDS011;17847;31.524;74.366;2023-06-22T05:25:21;34.95;;;11.88;;
31224;SDS011;17847;31.524;74.366;2023-06-22T05:27:50;31.63;;;11.07;;
31224;SDS011;17847;31.524;74.366;2023-06-22T05:30:20;33.25;;;8.80;;
31224;SDS011;17847;31.524;74.366;2023-06-22T05:32:49;31.35;;;9.93;;
31224;SDS011;17847;31.524;74.366;2023-06-22T05:35:21;25.95;;;9.18;;
31224;SDS011;17847;31.524;74.366;2023-06-22T05:37:51;29.25;;;7.85;;
31224;SDS011;17847;31.524;74.366;2023-06-22T05:40:21;23.05;;;8.13;;
31224;SDS011;17847;31.524;74.366;2023-06-22T05:42:50;29.23;;;8.82;;
31224;SDS011;17847;31.524;74.366;2023-06-22T05:45:20;29.65;;;9.02;;
31224;SDS011;17847;31.524;74.366;2023-06-22T05:47:49;33.10;;;9.60;;
31224;SDS011;17847;31.524;74.366;2023-06-22T05:50:28;27.85;;;8.00;;
31224;SDS011;17847;31.524;74.366;2023-06-22T05:52:59;31.10;;;9.60;;
31224;SDS011;17847;31.524;74.366;2023-06-22T05:55:29;32.75;;;9.32;;
31224;SDS011;17847;31.524;74.366;2023-06-22T05:58:02;33.83;;;9.45;;
31224;SDS011;17847;31.524;74.366;2023-06-22T06:00:35;35.50;;;8.57;;
31224;SDS011;17847;31.524;74.366;2023-06-22T06:03:06;34.60;;;8.25;;
31224;SDS011;17847;31.524;74.366;2023-06-22T06:05:40;28.63;;;7.30;;
31224;SDS011;17847;31.524;74.366;2023-06-22T06:08:09;31.42;;;7.82;;
31224;SDS011;17847;31.524;74.366;2023-06-22T06:10:40;27.90;;;6.88;;
31224;SDS011;17847;31.524;74.366;2023-06-22T06:13:09;23.95;;;7.45;;
31224;SDS011;17847;31.524;74.366;2023-06-22T06:15:39;23.55;;;7.50;;
31224;SDS011;17847;31.524;74.366;2023-06-22T06:18:09;25.10;;;6.70;;
31224;SDS011;17847;31.524;74.366;2023-06-22T06:20:39;28.65;;;7.38;;
31224;SDS011;17847;31.524;74.366;2023-06-22T06:23:08;31.67;;;6.93;;
31224;SDS011;17847;31.524;74.366;2023-06-22T06:25:38;28.98;;;6.68;;
31224;SDS011;17847;31.524;74.366;2023-06-22T06:28:07;22.83;;;6.90;;
31224;SDS011;17847;31.524;74.366;2023-06-22T06:30:37;28.98;;;7.68;;
31224;SDS011;17847;31.524;74.366;2023-06-22T06:33:06;25.75;;;7.20;;
31224;SDS011;17847;31.524;74.366;2023-06-22T06:35:37;24.75;;;6.82;;
31224;SDS011;17847;31.524;74.366;2023-06-22T06:38:06;21.40;;;6.70;;
31224;SDS011;17847;31.524;74.366;2023-06-22T06:40:36;22.55;;;6.70;;
31224;SDS011;17847;31.524;74.366;2023-06-22T06:43:05;27.83;;;7.43;;
31224;SDS011;17847;31.524;74.366;2023-06-22T06:45:35;22.52;;;6.55;;
31224;SDS011;17847;31.524;74.366;2023-06-22T06:48:05;26.70;;;6.22;;
31224;SDS011;17847;31.524;74.366;2023-06-22T06:50:35;27.10;;;6.75;;
31224;SDS011;17847;31.524;74.366;2023-06-22T06:53:05;19.88;;;6.47;;
31224;SDS011;17847;31.524;74.366;2023-06-22T06:55:34;30.13;;;7.38;;
31224;SDS011;17847;31.524;74.366;2023-06-22T06:58:03;21.58;;;6.72;;
31224;SDS011;17847;31.524;74.366;2023-06-22T07:00:36;21.63;;;6.88;;
31224;SDS011;17847;31.524;74.366;2023-06-22T07:03:05;22.38;;;6.32;;
31224;SDS011;17847;31.524;74.366;2023-06-22T07:05:36;23.05;;;6.75;;
31224;SDS011;17847;31.524;74.366;2023-06-22T07:08:05;28.77;;;5.95;;
31224;SDS011;17847;31.524;74.366;2023-06-22T07:10:35;25.65;;;6.20;;
31224;SDS011;17847;31.524;74.366;2023-06-22T07:13:04;29.48;;;7.15;;
31224;SDS011;17847;31.524;74.366;2023-06-22T07:15:34;29.92;;;7.95;;
31224;SDS011;17847;31.524;74.366;2023-06-22T07:18:03;35.80;;;6.65;;
31224;SDS011;17847;31.524;74.366;2023-06-22T07:20:33;23.98;;;6.85;;
31224;SDS011;17847;31.524;74.366;2023-06-22T07:23:03;24.05;;;6.72;;
31224;SDS011;17847;31.524;74.366;2023-06-22T07:25:33;28.85;;;7.43;;
31224;SDS011;17847;31.524;74.366;2023-06-22T07:28:03;23.00;;;6.50;;
31224;SDS011;17847;31.524;74.366;2023-06-22T07:30:34;21.70;;;6.63;;
31224;SDS011;17847;31.524;74.366;2023-06-22T07:33:04;37.47;;;6.78;;
31224;SDS011;17847;31.524;74.366;2023-06-22T07:35:37;25.80;;;6.47;;
31224;SDS011;17847;31.524;74.366;2023-06-22T07:38:06;21.55;;;6.03;;
31224;SDS011;17847;31.524;74.366;2023-06-22T07:40:37;23.55;;;5.53;;
31224;SDS011;17847;31.524;74.366;2023-06-22T07:43:07;19.90;;;5.60;;
31224;SDS011;17847;31.524;74.366;2023-06-22T07:45:37;22.58;;;6.15;;
31224;SDS011;17847;31.524;74.366;2023-06-22T07:50:37;16.10;;;5.47;;
31224;SDS011;17847;31.524;74.366;2023-06-22T07:53:07;30.10;;;7.38;;
31224;SDS011;17847;31.524;74.366;2023-06-22T07:55:39;21.50;;;6.60;;
31224;SDS011;17847;31.524;74.366;2023-06-22T07:58:09;19.42;;;6.30;;
31224;SDS011;17847;31.524;74.366;2023-06-22T08:00:38;34.90;;;7.22;;
31224;SDS011;17847;31.524;74.366;2023-06-22T08:03:09;23.02;;;5.93;;
31224;SDS011;17847;31.524;74.366;2023-06-22T08:05:38;19.00;;;6.97;;
31224;SDS011;17847;31.524;74.366;2023-06-22T08:08:07;29.25;;;7.38;;
31224;SDS011;17847;31.524;74.366;2023-06-22T08:10:37;24.02;;;5.65;;
31224;SDS011;17847;31.524;74.366;2023-06-22T08:13:06;27.23;;;6.15;;
31224;SDS011;17847;31.524;74.366;2023-06-22T08:15:37;22.60;;;6.47;;
31224;SDS011;17847;31.524;74.366;2023-06-22T08:18:06;19.17;;;5.93;;
31224;SDS011;17847;31.524;74.366;2023-06-22T08:20:36;29.05;;;8.27;;
31224;SDS011;17847;31.524;74.366;2023-06-22T08:23:05;26.70;;;6.78;;
31224;SDS011;17847;31.524;74.366;2023-06-22T08:25:35;22.60;;;6.63;;
31224;SDS011;17847;31.524;74.366;2023-06-22T08:28:05;23.95;;;7.03;;
31224;SDS011;17847;31.524;74.366;2023-06-22T08:30:36;21.02;;;7.22;;
31224;SDS011;17847;31.524;74.366;2023-06-22T08:33:05;21.15;;;6.35;;
31224;SDS011;17847;31.524;74.366;2023-06-22T08:35:34;28.33;;;6.60;;
31224;SDS011;17847;31.524;74.366;2023-06-22T08:38:04;28.02;;;7.68;;
31224;SDS011;17847;31.524;74.366;2023-06-22T08:40:34;33.17;;;7.00;;
31224;SDS011;17847;31.524;74.366;2023-06-22T08:43:04;22.73;;;6.40;;
31224;SDS011;17847;31.524;74.366;2023-06-22T08:45:34;24.17;;;7.82;;
31224;SDS011;17847;31.524;74.366;2023-06-22T08:48:04;36.35;;;9.30;;
31224;SDS011;17847;31.524;74.366;2023-06-22T08:50:33;23.90;;;8.65;;
31224;SDS011;17847;31.524;74.366;2023-06-22T08:53:03;23.98;;;7.60;;
31224;SDS011;17847;31.524;74.366;2023-06-22T08:55:33;25.02;;;6.80;;
31224;SDS011;17847;31.524;74.366;2023-06-22T08:58:03;33.08;;;7.75;;
31224;SDS011;17847;31.524;74.366;2023-06-22T09:00:32;21.40;;;7.07;;
31224;SDS011;17847;31.524;74.366;2023-06-22T09:03:03;30.60;;;7.43;;
31224;SDS011;17847;31.524;74.366;2023-06-22T09:05:33;28.58;;;7.80;;
31224;SDS011;17847;31.524;74.366;2023-06-22T09:08:04;26.08;;;6.80;;
31224;SDS011;17847;31.524;74.366;2023-06-22T09:10:34;32.88;;;7.85;;
31224;SDS011;17847;31.524;74.366;2023-06-22T09:13:04;23.48;;;8.43;;
31224;SDS011;17847;31.524;74.366;2023-06-22T09:15:34;18.10;;;6.63;;
31224;SDS011;17847;31.524;74.366;2023-06-22T09:18:04;20.58;;;8.07;;
31224;SDS011;17847;31.524;74.366;2023-06-22T09:20:34;29.70;;;7.32;;
31224;SDS011;17847;31.524;74.366;2023-06-22T09:23:04;26.63;;;6.93;;
31224;SDS011;17847;31.524;74.366;2023-06-22T09:25:33;19.08;;;6.40;;
31224;SDS011;17847;31.524;74.366;2023-06-22T09:28:03;20.85;;;7.57;;
31224;SDS011;17847;31.524;74.366;2023-06-22T09:30:32;24.17;;;7.60;;
31224;SDS011;17847;31.524;74.366;2023-06-22T09:33:02;24.40;;;8.38;;
31224;SDS011;17847;31.524;74.366;2023-06-22T09:35:32;33.50;;;8.50;;
31224;SDS011;17847;31.524;74.366;2023-06-22T09:38:07;23.65;;;8.05;;
31224;SDS011;17847;31.524;74.366;2023-06-22T09:40:37;25.83;;;8.55;;
31224;SDS011;17847;31.524;74.366;2023-06-22T09:43:09;26.63;;;7.50;;
31224;SDS011;17847;31.524;74.366;2023-06-22T09:45:40;21.05;;;7.20;;
31224;SDS011;17847;31.524;74.366;2023-06-22T09:48:11;25.38;;;7.38;;
31224;SDS011;17847;31.524;74.366;2023-06-22T09:50:41;24.27;;;6.80;;
31224;SDS011;17847;31.524;74.366;2023-06-22T09:53:11;28.58;;;7.13;;
31224;SDS011;17847;31.524;74.366;2023-06-22T09:55:41;40.55;;;7.97;;
31224;SDS011;17847;31.524;74.366;2023-06-22T09:58:11;22.75;;;7.60;;
31224;SDS011;17847;31.524;74.366;2023-06-22T10:00:40;28.60;;;7.43;;
31224;SDS011;17847;31.524;74.366;2023-06-22T10:03:10;33.75;;;7.43;;
31224;SDS011;17847;31.524;74.366;2023-06-22T10:05:41;33.63;;;8.55;;
31224;SDS011;17847;31.524;74.366;2023-06-22T10:08:13;30.27;;;8.25;;
31224;SDS011;17847;31.524;74.366;2023-06-22T10:10:42;30.67;;;7.40;;
31224;SDS011;17847;31.524;74.366;2023-06-22T10:13:12;25.13;;;6.95;;
31224;SDS011;17847;31.524;74.366;2023-06-22T10:15:43;26.00;;;6.63;;
31224;SDS011;17847;31.524;74.366;2023-06-22T10:18:18;22.15;;;6.45;;
31224;SDS011;17847;31.524;74.366;2023-06-22T10:20:48;31.85;;;8.30;;
31224;SDS011;17847;31.524;74.366;2023-06-22T10:23:22;29.23;;;7.13;;
31224;SDS011;17847;31.524;74.366;2023-06-22T10:25:52;24.40;;;7.38;;
31224;SDS011;17847;31.524;74.366;2023-06-22T10:28:22;20.70;;;6.38;;
31224;SDS011;17847;31.524;74.366;2023-06-22T10:30:57;23.75;;;8.23;;
31224;SDS011;17847;31.524;74.366;2023-06-22T10:33:26;21.42;;;7.03;;
31224;SDS011;17847;31.524;74.366;2023-06-22T10:35:56;26.13;;;7.20;;
31224;SDS011;17847;31.524;74.366;2023-06-22T10:38:25;21.42;;;6.85;;
31224;SDS011;17847;31.524;74.366;2023-06-22T10:40:55;23.10;;;7.75;;
31224;SDS011;17847;31.524;74.366;2023-06-22T10:43:26;20.88;;;6.45;;
31224;SDS011;17847;31.524;74.366;2023-06-22T10:45:55;21.48;;;6.22;;
31224;SDS011;17847;31.524;74.366;2023-06-22T10:48:25;24.13;;;6.82;;
31224;SDS011;17847;31.524;74.366;2023-06-22T10:50:54;27.10;;;7.50;;
31224;SDS011;17847;31.524;74.366;2023-06-22T10:53:24;21.40;;;7.60;;
31224;SDS011;17847;31.524;74.366;2023-06-22T10:55:53;27.50;;;6.80;;
31224;SDS011;17847;31.524;74.366;2023-06-22T10:58:24;22.17;;;6.78;;
31224;SDS011;17847;31.524;74.366;2023-06-22T11:00:55;29.63;;;7.57;;
31224;SDS011;17847;31.524;74.366;2023-06-22T11:03:24;24.98;;;7.05;;
31224;SDS011;17847;31.524;74.366;2023-06-22T11:05:54;25.83;;;6.40;;
31224;SDS011;17847;31.524;74.366;2023-06-22T11:08:23;32.92;;;6.10;;
31224;SDS011;17847;31.524;74.366;2023-06-22T11:10:53;24.15;;;7.22;;
31224;SDS011;17847;31.524;74.366;2023-06-22T11:13:23;26.13;;;6.43;;
31224;SDS011;17847;31.524;74.366;2023-06-22T11:15:54;18.90;;;5.93;;
31224;SDS011;17847;31.524;74.366;2023-06-22T11:18:23;23.92;;;7.20;;
31224;SDS011;17847;31.524;74.366;2023-06-22T11:20:53;32.00;;;6.55;;
31224;SDS011;17847;31.524;74.366;2023-06-22T11:23:22;23.70;;;7.32;;
31224;SDS011;17847;31.524;74.366;2023-06-22T11:25:54;32.03;;;7.85;;
31224;SDS011;17847;31.524;74.366;2023-06-22T11:28:24;17.98;;;6.30;;
31224;SDS011;17847;31.524;74.366;2023-06-22T11:30:54;18.40;;;5.90;;
31224;SDS011;17847;31.524;74.366;2023-06-22T11:33:25;21.27;;;5.40;;
31224;SDS011;17847;31.524;74.366;2023-06-22T11:35:55;26.27;;;6.65;;
31224;SDS011;17847;31.524;74.366;2023-06-22T11:38:26;19.00;;;6.15;;
31224;SDS011;17847;31.524;74.366;2023-06-22T11:40:55;24.65;;;6.07;;
31224;SDS011;17847;31.524;74.366;2023-06-22T11:43:24;23.05;;;6.45;;
31224;SDS011;17847;31.524;74.366;2023-06-22T11:45:54;24.42;;;5.78;;
31224;SDS011;17847;31.524;74.366;2023-06-22T11:48:25;29.75;;;6.88;;
31224;SDS011;17847;31.524;74.366;2023-06-22T11:50:54;22.73;;;6.38;;
31224;SDS011;17847;31.524;74.366;2023-06-22T11:53:26;25.58;;;6.15;;
31224;SDS011;17847;31.524;74.366;2023-06-22T11:55:55;22.33;;;6.60;;
31224;SDS011;17847;31.524;74.366;2023-06-22T11:58:26;22.15;;;6.65;;
31224;SDS011;17847;31.524;74.366;2023-06-22T12:00:56;26.92;;;7.50;;
31224;SDS011;17847;31.524;74.366;2023-06-22T12:03:25;28.63;;;6.22;;
31224;SDS011;17847;31.524;74.366;2023-06-22T12:05:55;27.42;;;7.25;;
31224;SDS011;17847;31.524;74.366;2023-06-22T12:08:25;30.92;;;6.57;;
31224;SDS011;17847;31.524;74.366;2023-06-22T12:10:55;23.45;;;8.10;;
31224;SDS011;17847;31.524;74.366;2023-06-22T12:13:25;30.42;;;6.93;;
31224;SDS011;17847;31.524;74.366;2023-06-22T12:15:55;20.42;;;6.22;;
31224;SDS011;17847;31.524;74.366;2023-06-22T12:18:24;26.40;;;6.93;;
31224;SDS011;17847;31.524;74.366;2023-06-22T12:20:54;31.45;;;6.55;;
31224;SDS011;17847;31.524;74.366;2023-06-22T12:23:23;23.92;;;7.75;;
31224;SDS011;17847;31.524;74.366;2023-06-22T12:25:53;29.50;;;6.75;;
31224;SDS011;17847;31.524;74.366;2023-06-22T12:28:23;31.52;;;8.25;;
31224;SDS011;17847;31.524;74.366;2023-06-22T12:30:52;28.08;;;6.55;;
31224;SDS011;17847;31.524;74.366;2023-06-22T12:33:22;32.30;;;8.20;;
31224;SDS011;17847;31.524;74.366;2023-06-22T12:35:52;32.03;;;7.03;;
31224;SDS011;17847;31.524;74.366;2023-06-22T12:38:21;26.40;;;7.05;;
31224;SDS011;17847;31.524;74.366;2023-06-22T12:40:51;25.02;;;7.13;;
31224;SDS011;17847;31.524;74.366;2023-06-22T12:43:20;20.75;;;6.22;;
31224;SDS011;17847;31.524;74.366;2023-06-22T12:45:50;32.70;;;7.10;;
31224;SDS011;17847;31.524;74.366;2023-06-22T12:48:19;31.27;;;6.20;;
31224;SDS011;17847;31.524;74.366;2023-06-22T12:50:49;20.17;;;6.13;;
31224;SDS011;17847;31.524;74.366;2023-06-22T12:53:21;31.05;;;7.28;;
31224;SDS011;17847;31.524;74.366;2023-06-22T12:55:52;30.75;;;7.85;;
31224;SDS011;17847;31.524;74.366;2023-06-22T12:58:22;27.45;;;7.05;;
31224;SDS011;17847;31.524;74.366;2023-06-22T13:00:51;27.98;;;6.65;;
31224;SDS011;17847;31.524;74.366;2023-06-22T13:03:21;27.10;;;7.32;;
31224;SDS011;17847;31.524;74.366;2023-06-22T13:05:50;24.92;;;6.80;;
31224;SDS011;17847;31.524;74.366;2023-06-22T13:08:20;34.85;;;8.32;;
31224;SDS011;17847;31.524;74.366;2023-06-22T13:11:10;19.55;;;6.97;;
31224;SDS011;17847;31.524;74.366;2023-06-22T13:13:40;21.45;;;6.65;;
31224;SDS011;17847;31.524;74.366;2023-06-22T13:16:10;27.02;;;8.27;;
31224;SDS011;17847;31.524;74.366;2023-06-22T13:18:40;29.08;;;7.22;;
31224;SDS011;17847;31.524;74.366;2023-06-22T13:21:10;31.13;;;7.60;;
31224;SDS011;17847;31.524;74.366;2023-06-22T13:23:39;34.50;;;8.05;;
31224;SDS011;17847;31.524;74.366;2023-06-22T13:26:09;31.88;;;7.95;;
31224;SDS011;17847;31.524;74.366;2023-06-22T13:28:39;35.70;;;7.65;;
31224;SDS011;17847;31.524;74.366;2023-06-22T13:31:08;25.33;;;7.22;;
31224;SDS011;17847;31.524;74.366;2023-06-22T13:33:38;36.05;;;7.68;;
31224;SDS011;17847;31.524;74.366;2023-06-22T13:36:09;33.77;;;8.67;;
31224;SDS011;17847;31.524;74.366;2023-06-22T13:38:39;20.88;;;7.50;;
31224;SDS011;17847;31.524;74.366;2023-06-22T13:41:09;25.10;;;7.85;;
31224;SDS011;17847;31.524;74.366;2023-06-22T13:43:38;31.13;;;7.60;;
31224;SDS011;17847;31.524;74.366;2023-06-22T13:46:08;31.27;;;6.93;;
31224;SDS011;17847;31.524;74.366;2023-06-22T13:48:37;22.40;;;6.53;;
31224;SDS011;17847;31.524;74.366;2023-06-22T13:51:07;26.35;;;6.82;;
31224;SDS011;17847;31.524;74.366;2023-06-22T13:53:37;33.90;;;8.45;;
31224;SDS011;17847;31.524;74.366;2023-06-22T13:56:06;31.40;;;7.75;;
31224;SDS011;17847;31.524;74.366;2023-06-22T13:58:41;27.80;;;6.60;;
31224;SDS011;17847;31.524;74.366;2023-06-22T14:01:12;29.13;;;7.70;;
31224;SDS011;17847;31.524;74.366;2023-06-22T14:03:44;27.65;;;6.85;;
31224;SDS011;17847;31.524;74.366;2023-06-22T14:06:15;28.88;;;6.70;;
31224;SDS011;17847;31.524;74.366;2023-06-22T14:08:45;28.88;;;7.80;;
31224;SDS011;17847;31.524;74.366;2023-06-22T14:11:15;26.33;;;6.30;;
31224;SDS011;17847;31.524;74.366;2023-06-22T14:13:44;27.60;;;7.20;;
31224;SDS011;17847;31.524;74.366;2023-06-22T14:16:13;25.33;;;7.15;;
31224;SDS011;17847;31.524;74.366;2023-06-22T14:18:44;26.90;;;7.35;;
31224;SDS011;17847;31.524;74.366;2023-06-22T14:21:14;29.45;;;7.53;;
31224;SDS011;17847;31.524;74.366;2023-06-22T14:23:45;30.77;;;8.02;;
31224;SDS011;17847;31.524;74.366;2023-06-22T14:26:18;21.33;;;7.05;;
31224;SDS011;17847;31.524;74.366;2023-06-22T14:28:48;32.88;;;7.00;;
31224;SDS011;17847;31.524;74.366;2023-06-22T14:31:21;23.95;;;7.43;;
31224;SDS011;17847;31.524;74.366;2023-06-22T14:33:50;25.25;;;7.63;;
31224;SDS011;17847;31.524;74.366;2023-06-22T14:36:20;34.38;;;8.90;;
31224;SDS011;17847;31.524;74.366;2023-06-22T14:38:49;23.55;;;6.78;;
31224;SDS011;17847;31.524;74.366;2023-06-22T14:41:19;25.10;;;7.75;;
31224;SDS011;17847;31.524;74.366;2023-06-22T14:43:49;28.15;;;6.82;;
31224;SDS011;17847;31.524;74.366;2023-06-22T14:46:19;28.38;;;7.03;;
31224;SDS011;17847;31.524;74.366;2023-06-22T14:48:49;28.17;;;7.30;;
31224;SDS011;17847;31.524;74.366;2023-06-22T14:51:18;24.23;;;6.47;;